createdAt,value
2018-09-06T00:01:44.876Z,15.70
2018-09-06T00:04:15.016Z,16.20
2018-09-06T00:06:44.429Z,16.10
2018-09-06T00:09:13.903Z,16.40
2018-09-06T00:11:43.283Z,15.90
2018-09-06T00:14:12.736Z,15.80
2018-09-06T00:16:42.225Z,16.00
2018-09-06T00:19:11.686Z,16.10
2018-09-06T00:21:41.036Z,16.10
2018-09-06T00:24:10.453Z,15.90
2018-09-06T00:26:39.755Z,15.80
2018-09-06T00:29:09.188Z,16.10
2018-09-06T00:36:36.762Z,15.90
2018-09-06T00:39:07.897Z,15.50
2018-09-06T00:41:37.457Z,15.60
2018-09-06T00:44:07.213Z,16.40
2018-09-06T00:46:36.600Z,15.90
2018-09-06T00:49:06.125Z,15.10
2018-09-06T00:51:35.487Z,15.10
2018-09-06T00:54:04.876Z,15.60
2018-09-06T00:56:34.233Z,16.00
2018-09-06T00:59:03.706Z,15.70
2018-09-06T01:04:02.216Z,15.40
2018-09-06T01:06:31.636Z,15.30
2018-09-06T01:11:30.162Z,15.20
2018-09-06T01:13:59.622Z,15.50
2018-09-06T01:18:58.155Z,15.10
2018-09-06T01:21:27.570Z,15.30
2018-09-06T01:23:57.008Z,14.90
2018-09-06T01:26:26.474Z,14.70
2018-09-06T01:28:55.889Z,14.90
2018-09-06T01:33:55.356Z,15.50
2018-09-06T01:36:59.332Z,15.40
2018-09-06T01:39:28.704Z,15.30
2018-09-06T01:41:58.097Z,15.40
2018-09-06T01:49:25.640Z,14.70
2018-09-06T01:51:55.137Z,15.40
2018-09-06T01:59:37.876Z,15.40
2018-09-06T02:02:07.707Z,14.80
2018-09-06T02:07:07.060Z,15.90
2018-09-06T02:09:36.480Z,15.20
2018-09-06T02:12:05.658Z,14.90
2018-09-06T02:14:34.857Z,15.40
2018-09-06T02:19:33.060Z,15.00
2018-09-06T02:22:02.282Z,15.00
2018-09-06T02:24:31.583Z,15.00
2018-09-06T02:27:00.816Z,15.40
2018-09-06T02:29:30.007Z,15.50
2018-09-06T02:31:59.246Z,15.50
2018-09-06T02:34:28.498Z,14.90
2018-09-06T02:36:57.761Z,15.10
2018-09-06T02:44:29.309Z,15.60
2018-09-06T02:46:58.517Z,15.80
2018-09-06T02:49:33.157Z,15.40
2018-09-06T02:54:31.701Z,15.60
2018-09-06T02:57:00.959Z,15.10
2018-09-06T02:59:30.145Z,15.10
2018-09-06T03:01:59.418Z,15.30
2018-09-06T03:06:57.758Z,15.50
2018-09-06T03:14:28.678Z,15.60
2018-09-06T03:16:57.953Z,15.70
2018-09-06T03:19:27.546Z,15.60
2018-09-06T03:21:56.796Z,15.40
2018-09-06T03:26:55.070Z,15.60
2018-09-06T03:29:24.273Z,15.60
2018-09-06T03:31:53.568Z,15.00
2018-09-06T03:34:22.870Z,14.90
2018-09-06T03:36:52.092Z,15.60
2018-09-06T03:41:50.318Z,15.00
2018-09-06T03:46:48.672Z,15.10
2018-09-06T03:49:17.892Z,15.60
2018-09-06T03:54:16.249Z,15.50
2018-09-06T04:06:41.724Z,15.50
2018-09-06T04:09:11.598Z,15.30
2018-09-06T04:11:40.822Z,14.90
2018-09-06T04:14:10.122Z,15.30
2018-09-06T04:24:07.439Z,15.60
2018-09-06T04:26:36.723Z,15.40
2018-09-06T04:29:06.055Z,15.40
2018-09-06T04:31:35.298Z,15.20
2018-09-06T04:36:33.538Z,15.10
2018-09-06T04:39:02.861Z,14.80
2018-09-06T04:41:32.090Z,15.40
2018-09-06T04:46:30.351Z,14.70
2018-09-06T04:48:59.605Z,15.20
2018-09-06T04:58:56.304Z,15.40
2018-09-06T05:03:54.536Z,15.40
2018-09-06T05:06:23.761Z,15.50
2018-09-06T05:08:52.982Z,15.20
2018-09-06T05:11:22.215Z,15.10
2018-09-06T05:16:20.436Z,15.50
2018-09-06T05:21:18.629Z,15.50
2018-09-06T05:23:47.882Z,15.60
2018-09-06T05:26:17.105Z,15.90
2018-09-06T05:28:46.333Z,15.70
2018-09-06T05:31:15.552Z,15.80
2018-09-06T05:33:44.825Z,15.70
2018-09-06T05:36:14.196Z,15.90
2018-09-06T05:38:43.312Z,15.80
2018-09-06T05:41:12.580Z,15.70
2018-09-06T05:43:41.878Z,15.90
2018-09-06T05:46:11.460Z,16.00
2018-09-06T05:48:40.757Z,15.60
2018-09-06T05:51:10.038Z,16.10
2018-09-06T05:56:08.205Z,16.50
2018-09-06T05:58:37.555Z,16.70
2018-09-06T06:01:07.068Z,16.60
2018-09-06T06:08:44.464Z,17.20
2018-09-06T06:13:42.788Z,17.60
2018-09-06T06:18:41.977Z,17.60
2018-09-06T06:21:11.461Z,17.50
2018-09-06T06:23:40.734Z,17.80
2018-09-06T06:26:09.984Z,18.10
2018-09-06T06:31:08.321Z,18.10
2018-09-06T06:33:37.952Z,18.50
2018-09-06T06:36:07.648Z,18.60
2018-09-06T06:41:06.037Z,18.90
2018-09-06T06:43:35.277Z,19.00
2018-09-06T06:46:04.527Z,19.60
2018-09-06T06:48:33.771Z,19.20
2018-09-06T06:51:03.067Z,19.20
2018-09-06T06:53:32.335Z,19.20
2018-09-06T06:56:01.594Z,19.40
2018-09-06T06:58:30.832Z,19.60
2018-09-06T07:01:00.100Z,19.50
2018-09-06T07:05:58.401Z,19.70
2018-09-06T07:08:27.673Z,19.40
2018-09-06T07:10:56.908Z,19.40
2018-09-06T07:13:26.141Z,20.00
2018-09-06T07:15:55.354Z,19.90
2018-09-06T07:18:24.678Z,20.00
2018-09-06T07:23:22.875Z,19.90
2018-09-06T07:25:52.090Z,20.00
2018-09-06T07:30:50.309Z,20.30
2018-09-06T07:35:48.505Z,20.30
2018-09-06T07:38:17.731Z,20.40
2018-09-06T07:40:46.997Z,20.40
2018-09-06T07:45:45.341Z,20.30
2018-09-06T07:48:14.590Z,20.50
2018-09-06T07:50:43.817Z,20.60
2018-09-06T07:53:13.052Z,20.60
2018-09-06T07:58:11.229Z,21.20
2018-09-06T08:00:41.431Z,20.70
2018-09-06T08:03:11.607Z,21.00
2018-09-06T08:05:41.496Z,21.10
2018-09-06T08:08:10.730Z,21.20
2018-09-06T08:10:39.991Z,21.20
2018-09-06T08:13:09.295Z,21.30
2018-09-06T08:15:38.544Z,21.50
2018-09-06T08:18:07.927Z,21.50
2018-09-06T08:20:37.139Z,21.00
2018-09-06T08:25:35.906Z,21.60
2018-09-06T08:28:05.207Z,21.00
2018-09-06T08:30:34.552Z,21.90
2018-09-06T08:33:03.707Z,22.30
2018-09-06T08:35:32.939Z,22.30
2018-09-06T08:38:02.231Z,22.50
2018-09-06T08:40:31.534Z,22.60
2018-09-06T08:43:00.777Z,22.90
2018-09-06T08:45:30.133Z,22.40
2018-09-06T08:47:59.378Z,22.60
2018-09-06T08:50:28.629Z,22.60
2018-09-06T08:52:58.160Z,22.60
2018-09-06T08:55:27.374Z,23.00
2018-09-06T09:00:25.517Z,22.40
2018-09-06T09:05:23.915Z,23.20
2018-09-06T09:07:53.121Z,22.60
2018-09-06T09:10:22.330Z,23.00
2018-09-06T09:12:51.650Z,23.20
2018-09-06T09:17:49.958Z,23.60
2018-09-06T09:20:19.162Z,23.50
2018-09-06T09:25:17.451Z,23.80
2018-09-06T09:30:16.005Z,24.20
2018-09-06T09:32:45.307Z,24.00
2018-09-06T09:35:14.553Z,23.90
2018-09-06T09:37:43.776Z,24.30
2018-09-06T09:40:13.122Z,24.30
2018-09-06T09:42:42.341Z,24.00
2018-09-06T09:47:40.539Z,24.30
2018-09-06T09:50:09.803Z,23.80
2018-09-06T09:52:39.075Z,24.10
2018-09-06T09:57:37.678Z,24.20
2018-09-06T10:00:07.197Z,24.40
2018-09-06T10:02:41.737Z,24.20
2018-09-06T10:05:16.207Z,24.30
2018-09-06T10:10:19.790Z,24.10
2018-09-06T10:12:49.059Z,24.10
2018-09-06T10:15:18.327Z,24.50
2018-09-06T10:17:47.587Z,24.00
2018-09-06T10:20:16.877Z,24.10
2018-09-06T10:25:15.100Z,23.90
2018-09-06T10:30:13.541Z,24.60
2018-09-06T10:32:42.773Z,24.10
2018-09-06T10:35:12.050Z,24.50
2018-09-06T10:37:41.316Z,24.60
2018-09-06T10:42:39.531Z,24.60
2018-09-06T10:45:08.713Z,25.00
2018-09-06T10:47:38.162Z,24.70
2018-09-06T10:50:07.840Z,25.30
2018-09-06T10:52:37.289Z,25.10
2018-09-06T10:57:36.465Z,25.10
2018-09-06T11:00:09.218Z,24.90
2018-09-06T11:02:38.548Z,25.10
2018-09-06T11:05:07.858Z,24.70
2018-09-06T11:07:37.119Z,24.80
2018-09-06T11:10:06.770Z,24.90
2018-09-06T11:12:36.053Z,24.80
2018-09-06T11:15:05.416Z,24.90
2018-09-06T11:17:34.597Z,25.30
2018-09-06T11:20:03.819Z,25.20
2018-09-06T11:22:33.408Z,25.10
2018-09-06T11:25:02.569Z,25.00
2018-09-06T11:27:31.825Z,25.20
2018-09-06T11:30:01.103Z,25.20
2018-09-06T11:32:30.391Z,25.20
2018-09-06T11:37:28.647Z,25.90
2018-09-06T11:42:26.986Z,25.60
2018-09-06T11:44:56.156Z,26.40
2018-09-06T11:49:54.370Z,25.10
2018-09-06T11:52:23.671Z,25.70
2018-09-06T11:57:22.080Z,25.80
2018-09-06T11:59:51.346Z,25.90
2018-09-06T12:02:20.989Z,25.30
2018-09-06T12:04:50.221Z,26.30
2018-09-06T12:07:19.421Z,26.10
2018-09-06T12:09:48.685Z,26.20
2018-09-06T12:14:46.882Z,26.10
2018-09-06T12:17:16.130Z,26.60
2018-09-06T12:19:45.441Z,25.80
2018-09-06T12:22:14.693Z,26.00
2018-09-06T12:24:43.943Z,25.80
2018-09-06T12:29:42.531Z,26.30
2018-09-06T12:34:41.071Z,26.40
2018-09-06T12:37:12.518Z,25.90
2018-09-06T12:39:43.514Z,25.90
2018-09-06T12:44:42.739Z,25.60
2018-09-06T12:47:12.186Z,25.60
2018-09-06T12:49:41.601Z,26.00
2018-09-06T12:52:10.842Z,26.20
2018-09-06T12:54:40.078Z,25.90
2018-09-06T12:57:09.319Z,26.30
2018-09-06T12:59:38.517Z,26.20
2018-09-06T13:02:07.814Z,26.10
2018-09-06T13:09:35.100Z,26.80
2018-09-06T13:12:04.415Z,26.10
2018-09-06T13:14:33.652Z,26.60
2018-09-06T13:17:03.023Z,26.50
2018-09-06T13:19:32.258Z,26.50
2018-09-06T13:26:59.401Z,26.20
2018-09-06T13:31:57.707Z,25.90
2018-09-06T13:34:26.926Z,26.30
2018-09-06T13:36:56.159Z,25.30
2018-09-06T13:39:25.332Z,25.60
2018-09-06T13:41:54.558Z,25.70
2018-09-06T13:44:23.793Z,25.90
2018-09-06T13:46:53.123Z,25.80
2018-09-06T13:49:22.458Z,25.90
2018-09-06T13:51:51.705Z,26.10
2018-09-06T13:54:21.105Z,25.30
2018-09-06T13:56:50.301Z,26.30
2018-09-06T13:59:19.618Z,25.60
2018-09-06T14:01:48.921Z,25.80
2018-09-06T14:04:18.244Z,25.80
2018-09-06T14:06:47.510Z,25.10
2018-09-06T14:09:16.771Z,25.50
2018-09-06T14:11:46.046Z,25.90
2018-09-06T14:16:44.540Z,26.20
2018-09-06T14:19:13.790Z,25.60
2018-09-06T14:24:12.157Z,26.00
2018-09-06T14:26:41.391Z,25.50
2018-09-06T14:29:10.665Z,26.00
2018-09-06T14:31:40.612Z,26.00
2018-09-06T14:36:38.962Z,26.30
2018-09-06T14:39:09.065Z,26.10
2018-09-06T14:44:07.812Z,26.20
2018-09-06T14:49:06.040Z,26.10
2018-09-06T14:51:35.305Z,26.30
2018-09-06T14:54:04.547Z,26.10
2018-09-06T14:56:33.847Z,26.50
2018-09-06T14:59:03.058Z,26.00
2018-09-06T15:01:32.426Z,25.90
2018-09-06T15:04:01.600Z,26.00
2018-09-06T15:06:30.841Z,26.20
2018-09-06T15:09:00.082Z,26.10
2018-09-06T15:13:58.390Z,25.80
2018-09-06T15:16:27.563Z,26.00
2018-09-06T15:18:56.788Z,25.90
2018-09-06T15:21:26.015Z,26.10
2018-09-06T15:23:55.204Z,26.30
2018-09-06T15:26:24.482Z,25.90
2018-09-06T15:28:53.828Z,26.00
2018-09-06T15:31:23.134Z,25.90
2018-09-06T15:36:21.467Z,25.90
2018-09-06T15:38:50.715Z,25.30
2018-09-06T15:43:48.982Z,26.30
2018-09-06T15:56:14.244Z,25.80
2018-09-06T15:58:43.498Z,26.20
2018-09-06T16:01:12.763Z,25.50
2018-09-06T16:06:10.951Z,25.70
2018-09-06T16:11:09.154Z,25.80
2018-09-06T16:13:38.383Z,25.50
2018-09-06T16:16:07.573Z,25.60
2018-09-06T16:18:36.821Z,25.50
2018-09-06T16:21:06.041Z,25.40
2018-09-06T16:23:35.305Z,25.20
2018-09-06T16:26:04.598Z,25.30
2018-09-06T16:28:34.215Z,25.30
2018-09-06T16:33:32.878Z,24.90
2018-09-06T16:36:02.146Z,25.20
2018-09-06T16:45:58.726Z,25.00
2018-09-06T16:53:26.215Z,24.90
2018-09-06T16:55:55.445Z,24.90
2018-09-06T16:58:24.701Z,24.30
2018-09-06T17:00:54.074Z,24.70
2018-09-06T17:08:21.268Z,24.30
2018-09-06T17:10:50.522Z,24.50
2018-09-06T17:13:19.790Z,24.80
2018-09-06T17:15:49.059Z,24.40
2018-09-06T17:18:18.277Z,24.40
2018-09-06T17:23:16.574Z,24.10
2018-09-06T17:25:45.868Z,24.40
2018-09-06T17:28:15.151Z,23.80
2018-09-06T17:33:13.602Z,24.10
2018-09-06T17:35:42.920Z,24.00
2018-09-06T17:38:12.285Z,24.00
2018-09-06T17:43:11.271Z,23.90
2018-09-06T17:45:40.880Z,24.10
2018-09-06T17:48:10.237Z,23.70
2018-09-06T17:53:08.800Z,23.80
2018-09-06T17:55:38.180Z,23.70
2018-09-06T17:58:07.756Z,23.70
2018-09-06T18:00:45.381Z,23.70
2018-09-06T18:03:15.633Z,23.50
2018-09-06T18:05:45.304Z,23.50
2018-09-06T18:18:26.990Z,23.30
2018-09-06T18:28:24.513Z,23.40
2018-09-06T18:33:23.194Z,23.10
2018-09-06T18:40:51.228Z,23.30
2018-09-06T18:43:20.591Z,23.10
2018-09-06T18:55:47.473Z,23.30
2018-09-06T19:03:16.233Z,23.10
2018-09-06T19:08:14.873Z,23.00
2018-09-06T19:13:17.091Z,23.10
2018-09-06T19:15:47.597Z,23.30
2018-09-06T19:18:17.126Z,23.10
2018-09-06T19:20:46.424Z,22.80
2018-09-06T19:23:16.424Z,23.00
2018-09-06T19:28:14.954Z,23.00
2018-09-06T19:30:44.313Z,23.10
2018-09-06T19:33:13.583Z,23.00
2018-09-06T19:38:12.001Z,22.90
2018-09-06T19:40:41.383Z,22.90
2018-09-06T19:43:10.810Z,22.30
2018-09-06T19:45:40.291Z,22.80
2018-09-06T19:48:09.688Z,22.80
2018-09-06T19:50:39.590Z,22.70
2018-09-06T19:53:08.953Z,22.80
2018-09-06T19:55:38.328Z,22.80
2018-09-06T19:58:07.593Z,23.20
2018-09-06T20:00:36.936Z,22.80
2018-09-06T20:03:06.289Z,22.60
2018-09-06T20:05:35.609Z,22.50
2018-09-06T20:08:04.998Z,22.70
2018-09-06T20:10:34.257Z,22.60
2018-09-06T20:13:03.559Z,22.60
2018-09-06T20:15:33.113Z,22.70
2018-09-06T20:18:02.567Z,22.70
2018-09-06T20:20:32.208Z,22.50
2018-09-06T20:23:01.805Z,22.60
2018-09-06T20:30:29.519Z,22.40
2018-09-06T20:32:58.746Z,22.20
2018-09-06T20:35:28.019Z,22.30
2018-09-06T20:40:26.357Z,22.30
2018-09-06T20:46:06.125Z,22.00
2018-09-06T20:51:04.820Z,21.90
2018-09-06T20:53:45.573Z,21.90
2018-09-06T20:56:14.821Z,21.70
2018-09-06T21:03:42.234Z,22.30
2018-09-06T21:06:11.589Z,21.70
2018-09-06T21:08:40.846Z,21.50
2018-09-06T21:11:10.149Z,21.50
2018-09-06T21:13:39.576Z,21.90
2018-09-06T21:18:38.008Z,21.50
2018-09-06T21:21:07.299Z,21.60
2018-09-06T21:23:37.736Z,21.20
2018-09-06T21:26:07.100Z,22.00
2018-09-06T21:28:36.492Z,22.30
2018-09-06T21:31:05.740Z,21.80
2018-09-06T21:36:04.090Z,21.80
2018-09-06T21:38:33.388Z,21.90
2018-09-06T21:41:02.759Z,21.50
2018-09-06T21:46:01.046Z,21.60
2018-09-06T21:50:59.473Z,21.60
2018-09-06T21:53:28.751Z,22.20
2018-09-06T21:58:27.204Z,21.70
2018-09-06T22:00:56.677Z,22.00
2018-09-06T22:03:31.275Z,21.20
2018-09-06T22:06:00.726Z,21.50
2018-09-06T22:08:30.005Z,21.80
2018-09-06T22:10:59.316Z,21.70
2018-09-06T22:15:57.670Z,21.60
2018-09-06T22:18:26.961Z,21.80
2018-09-06T22:20:56.302Z,21.50
2018-09-06T22:23:25.618Z,21.50
2018-09-06T22:25:54.885Z,21.50
2018-09-06T22:30:53.114Z,20.90
2018-09-06T22:33:22.321Z,21.50
2018-09-06T22:35:51.620Z,21.40
2018-09-06T22:38:20.876Z,21.40
2018-09-06T22:40:50.174Z,21.50
2018-09-06T22:43:19.569Z,21.20
2018-09-06T22:50:47.169Z,21.80
2018-09-06T22:53:16.969Z,21.20
2018-09-06T22:55:46.347Z,21.00
2018-09-06T22:58:16.272Z,21.00
2018-09-06T23:00:45.598Z,21.00
2018-09-06T23:08:18.325Z,21.10
2018-09-06T23:10:47.688Z,21.20
2018-09-06T23:13:17.236Z,20.80
2018-09-06T23:15:46.533Z,20.80
2018-09-06T23:18:15.893Z,21.00
2018-09-06T23:20:45.221Z,21.30
2018-09-06T23:23:14.552Z,20.60
2018-09-06T23:33:11.544Z,20.10
2018-09-06T23:35:44.374Z,20.00
2018-09-06T23:38:16.133Z,20.30
2018-09-06T23:43:20.360Z,20.10
2018-09-06T23:45:52.824Z,20.00
2018-09-06T23:48:24.646Z,19.70
2018-09-06T23:53:24.304Z,19.40
2018-09-06T23:55:53.834Z,19.50
